DW0425 Hajer DK current weather conditions

sailwx.info

Wind from 266 at 13 knots gusting 22

Air temperature 16.7° C
Dewpoint 14.1° C

Last reported at 2018-Jun-20 20:01 UTC.
Time now 2018-Jun-20 21:17 UTC

Location: N 54°58' E 008°41'.
View on Google Maps.

See reports from other nearby stations

  
Tides and Currents Weather Stations Pressure Air Temp Water Temp Dewpoint Dewpoint Depression Visibility Wind Speed Wind Dir Waves Ship Positions
date/time (UTC)wind fromknots sea level pressurealtimeterstation pressurevisibilityair tempwater tempwave heightnotes
2018-Jun-20 20:01 266 13 gusting 22 16.7
2018-Jun-20 19:46 261 13 gusting 23 16.7
2018-Jun-20 19:16 232 14 gusting 22 16.7
2018-Jun-20 19:01 240 13 gusting 21 16.7
2018-Jun-20 18:31 254 13 gusting 19 16.1
2018-Jun-20 18:16 238 12 gusting 20 16.7
2018-Jun-20 18:01 248 13 gusting 21 16.7
2018-Jun-20 17:16 242 14 gusting 23 17.2
2018-Jun-20 16:46 234 14 gusting 23 17.2
2018-Jun-20 16:01 239 15 gusting 25 17.8
2018-Jun-20 15:01 250 15 gusting 24 18.9
2018-Jun-20 14:31 236 13 gusting 24 18.3
2018-Jun-20 13:31 237 16 gusting 26 19.4
2018-Jun-20 13:16 258 14 gusting 23 19.4
2018-Jun-20 13:01 232 13 gusting 23 20.0
2018-Jun-20 12:46 229 12 gusting 19 20.0
2018-Jun-20 12:31 240 15 gusting 22 19.4
2018-Jun-20 11:46 218 11 gusting 20 19.4
2018-Jun-20 11:31 265 13 gusting 23 19.4
2018-Jun-20 11:01 224 12 gusting 26 18.9
2018-Jun-20 10:31 215 13 gusting 20 18.3
2018-Jun-20 10:16 225 13 gusting 21 18.3
2018-Jun-20 10:01 232 11 gusting 21 18.3
2018-Jun-20 09:46 207 12 gusting 20 18.3
2018-Jun-20 09:31 246 11 gusting 21 18.3
2018-Jun-20 09:01 227 11 gusting 18 18.9
2018-Jun-20 08:46 235 11 gusting 21 18.9
2018-Jun-20 08:16 225 12 gusting 20 18.9
2018-Jun-20 08:01 246 12 gusting 22 18.9
2018-Jun-20 07:46 230 12 gusting 21 18.9
2018-Jun-20 06:46 232 8 gusting 17 17.8
2018-Jun-20 06:16 215 7 gusting 14 17.8
2018-Jun-20 06:01 212 7 gusting 17 17.8
2018-Jun-20 05:31 192 6 gusting 13 17.2
2018-Jun-20 05:16 186 6 gusting 14 17.2
2018-Jun-20 05:01 229 6 gusting 11 16.7
2018-Jun-20 04:46 198 6 gusting 13 16.7
2018-Jun-20 04:16 188 5 gusting 10 16.1
2018-Jun-20 04:01 180 4 gusting 9 15.6
2018-Jun-20 03:46 184 4 gusting 7 15.6
2018-Jun-20 03:31 178 4 gusting 8 15.0
2018-Jun-20 03:01 177 3 gusting 5 14.4
2018-Jun-20 02:16 179 2 gusting 4 14.4
2018-Jun-20 01:01 199 2 gusting 4 14.4
2018-Jun-20 00:46 232 3 gusting 6 14.4
2018-Jun-20 00:31 236 4 gusting 7 15.0
2018-Jun-19 23:46 236 6 gusting 11 14.4
2018-Jun-19 22:31 241 7 gusting 13 14.4
2018-Jun-19 21:46 276 8 gusting 13 14.4
2018-Jun-19 21:31 242 7 gusting 12 14.4
2018-Jun-19 20:46 265 8 gusting 13 14.4
2018-Jun-19 20:31 254 7 gusting 13 13.9
2018-Jun-19 20:01 283 7 gusting 11 14.4
2018-Jun-19 19:46 271 7 gusting 13 14.4
2018-Jun-19 19:31 246 6 gusting 13 14.4
2018-Jun-19 19:01 271 7 gusting 13 14.4
2018-Jun-19 18:46 290 6 gusting 12 14.4
2018-Jun-19 18:01 284 8 gusting 13 15.6
2018-Jun-19 17:46 291 8 gusting 13 15.6
2018-Jun-19 17:31 311 8 gusting 13 15.6
2018-Jun-19 17:01 288 8 gusting 14 16.1
2018-Jun-19 16:46 275 9 gusting 15 16.1
2018-Jun-19 16:31 277 9 gusting 15 16.7
2018-Jun-19 16:16 278 8 gusting 16 16.1
2018-Jun-19 16:01 263 8 gusting 13 16.7
2018-Jun-19 15:46 271 9 gusting 15 16.7
2018-Jun-19 15:31 297 8 gusting 15 16.7
2018-Jun-19 15:01 271 10 gusting 18 16.7
2018-Jun-19 14:31 277 10 gusting 17 16.7
2018-Jun-19 13:46 272 11 gusting 16 17.2
2018-Jun-19 13:16 281 10 gusting 16 16.7
2018-Jun-19 13:01 278 11 gusting 18 17.2
2018-Jun-19 12:31 279 13 gusting 19 16.7
2018-Jun-19 12:16 267 12 gusting 19 17.2
2018-Jun-19 12:01 292 11 gusting 18 16.7
2018-Jun-19 11:46 285 12 gusting 19 17.2
2018-Jun-19 10:46 302 11 gusting 18 17.2
2018-Jun-19 10:31 286 10 gusting 15 17.8
2018-Jun-19 10:16 299 12 gusting 18 17.8
2018-Jun-19 09:16 290 11 gusting 18 17.2
2018-Jun-19 09:01 259 12 gusting 18 17.8
2018-Jun-19 08:46 301 10 gusting 18 17.2
2018-Jun-19 08:31 265 9 gusting 17 17.2
2018-Jun-19 08:16 267 9 gusting 16 16.7
2018-Jun-19 07:46 276 10 gusting 18 16.1
2018-Jun-19 07:31 266 11 gusting 16 15.6
2018-Jun-19 07:01 268 13 gusting 21 17.2
2018-Jun-19 06:31 292 11 gusting 18 17.2
2018-Jun-19 06:16 306 11 gusting 16 16.7
2018-Jun-19 06:01 265 11 gusting 16 16.7
2018-Jun-19 05:46 264 12 gusting 19 16.7
2018-Jun-19 05:01 261 8 gusting 14 16.1
2018-Jun-19 04:46 263 8 gusting 13 16.1
2018-Jun-19 04:31 230 9 gusting 15 16.1
2018-Jun-19 02:46 257 7 gusting 13 15.6
2018-Jun-19 02:31 273 9 gusting 15 15.6
2018-Jun-19 02:16 266 9 gusting 15 15.6
2018-Jun-19 02:01 242 10 gusting 19 15.6
2018-Jun-19 01:46 244 9 gusting 14 15.6
2018-Jun-19 01:31 280 10 gusting 17 15.6
2018-Jun-19 01:16 245 6 gusting 13 15.0
2018-Jun-19 01:01 234 6 gusting 12 15.0
2018-Jun-19 00:46 201 6 gusting 12 15.0
2018-Jun-19 00:01 251 7 gusting 13 15.0
2018-Jun-18 23:31 247 9 gusting 15 15.0
2018-Jun-18 23:01 259 9 gusting 16 15.0
2018-Jun-18 22:16 244 9 gusting 14 15.0
2018-Jun-18 22:01 213 9 gusting 13 15.0
2018-Jun-18 21:01 236 9 gusting 14 15.6